sensor_id;sensor_type;location;lat;lon;timestamp;temperature;humidity
11009;DHT22;5557;51.670;7.788;2024-02-26T00:02:25;4.70;1.00
11009;DHT22;5557;51.670;7.788;2024-02-26T00:04:52;4.70;1.00
11009;DHT22;5557;51.670;7.788;2024-02-26T00:07:21;4.80;1.00
11009;DHT22;5557;51.670;7.788;2024-02-26T00:09:49;4.80;1.00
11009;DHT22;5557;51.670;7.788;2024-02-26T00:12:16;4.80;1.00
11009;DHT22;5557;51.670;7.788;2024-02-26T00:14:44;4.90;1.00
11009;DHT22;5557;51.670;7.788;2024-02-26T00:17:13;4.90;1.00
11009;DHT22;5557;51.670;7.788;2024-02-26T00:19:41;5.00;1.00
11009;DHT22;5557;51.670;7.788;2024-02-26T00:22:08;5.00;1.00
11009;DHT22;5557;51.670;7.788;2024-02-26T00:24:36;5.00;1.00
11009;DHT22;5557;51.670;7.788;2024-02-26T00:27:08;5.00;1.00
11009;DHT22;5557;51.670;7.788;2024-02-26T00:29:36;5.00;1.00
11009;DHT22;5557;51.670;7.788;2024-02-26T00:32:04;5.00;1.00
11009;DHT22;5557;51.670;7.788;2024-02-26T00:34:40;5.00;1.00
11009;DHT22;5557;51.670;7.788;2024-02-26T00:37:09;5.00;1.00
11009;DHT22;5557;51.670;7.788;2024-02-26T00:39:36;5.00;1.00
11009;DHT22;5557;51.670;7.788;2024-02-26T00:42:08;5.00;1.00
11009;DHT22;5557;51.670;7.788;2024-02-26T00:44:35;5.00;1.00
11009;DHT22;5557;51.670;7.788;2024-02-26T00:47:03;5.00;1.00
11009;DHT22;5557;51.670;7.788;2024-02-26T00:49:30;5.00;1.00
11009;DHT22;5557;51.670;7.788;2024-02-26T00:51:57;5.00;1.00
11009;DHT22;5557;51.670;7.788;2024-02-26T00:54:32;5.00;1.00
11009;DHT22;5557;51.670;7.788;2024-02-26T00:56:59;5.00;1.00
11009;DHT22;5557;51.670;7.788;2024-02-26T00:59:26;5.10;1.00
11009;DHT22;5557;51.670;7.788;2024-02-26T01:01:54;5.10;1.00
11009;DHT22;5557;51.670;7.788;2024-02-26T01:04:21;5.10;1.00
11009;DHT22;5557;51.670;7.788;2024-02-26T01:06:51;5.10;1.00
11009;DHT22;5557;51.670;7.788;2024-02-26T01:09:18;5.20;1.00
11009;DHT22;5557;51.670;7.788;2024-02-26T01:11:46;5.20;1.00
11009;DHT22;5557;51.670;7.788;2024-02-26T01:14:13;5.20;1.00
11009;DHT22;5557;51.670;7.788;2024-02-26T01:16:41;5.20;1.00
11009;DHT22;5557;51.670;7.788;2024-02-26T01:19:08;5.20;1.00
11009;DHT22;5557;51.670;7.788;2024-02-26T01:21:36;5.20;1.00
11009;DHT22;5557;51.670;7.788;2024-02-26T01:24:07;5.20;1.00
11009;DHT22;5557;51.670;7.788;2024-02-26T01:26:35;5.20;1.00
11009;DHT22;5557;51.670;7.788;2024-02-26T01:29:02;5.20;1.00
11009;DHT22;5557;51.670;7.788;2024-02-26T01:31:30;5.20;1.00
11009;DHT22;5557;51.670;7.788;2024-02-26T01:34:02;5.30;1.00
11009;DHT22;5557;51.670;7.788;2024-02-26T01:36:29;5.30;1.00
11009;DHT22;5557;51.670;7.788;2024-02-26T01:38:56;5.30;1.00
11009;DHT22;5557;51.670;7.788;2024-02-26T01:41:23;5.30;1.00
11009;DHT22;5557;51.670;7.788;2024-02-26T01:43:50;5.40;1.00
11009;DHT22;5557;51.670;7.788;2024-02-26T01:46:17;5.40;1.00
11009;DHT22;5557;51.670;7.788;2024-02-26T01:48:46;5.40;1.00
11009;DHT22;5557;51.670;7.788;2024-02-26T01:51:15;5.40;1.00
11009;DHT22;5557;51.670;7.788;2024-02-26T01:53:44;5.40;1.00
11009;DHT22;5557;51.670;7.788;2024-02-26T01:56:15;5.40;1.00
11009;DHT22;5557;51.670;7.788;2024-02-26T01:58:43;5.50;1.00
11009;DHT22;5557;51.670;7.788;2024-02-26T02:01:11;5.50;1.00
11009;DHT22;5557;51.670;7.788;2024-02-26T02:03:39;5.50;1.00
11009;DHT22;5557;51.670;7.788;2024-02-26T02:06:08;5.50;1.00
11009;DHT22;5557;51.670;7.788;2024-02-26T02:08:37;5.40;1.00
11009;DHT22;5557;51.670;7.788;2024-02-26T02:11:06;5.40;1.00
11009;DHT22;5557;51.670;7.788;2024-02-26T02:13:33;5.40;1.00
11009;DHT22;5557;51.670;7.788;2024-02-26T02:16:01;5.40;1.00
11009;DHT22;5557;51.670;7.788;2024-02-26T02:18:28;5.40;1.00
11009;DHT22;5557;51.670;7.788;2024-02-26T02:20:55;5.40;1.00
11009;DHT22;5557;51.670;7.788;2024-02-26T02:23:30;5.40;1.00
11009;DHT22;5557;51.670;7.788;2024-02-26T02:25:58;5.40;1.00
11009;DHT22;5557;51.670;7.788;2024-02-26T02:28:26;5.40;1.00
11009;DHT22;5557;51.670;7.788;2024-02-26T02:30:54;5.40;1.00
11009;DHT22;5557;51.670;7.788;2024-02-26T02:33:27;5.40;1.00
11009;DHT22;5557;51.670;7.788;2024-02-26T02:35:58;5.40;1.00
11009;DHT22;5557;51.670;7.788;2024-02-26T02:38:25;5.50;1.00
11009;DHT22;5557;51.670;7.788;2024-02-26T02:40:53;5.40;1.00
11009;DHT22;5557;51.670;7.788;2024-02-26T02:43:20;5.40;1.00
11009;DHT22;5557;51.670;7.788;2024-02-26T02:45:47;5.50;1.00
11009;DHT22;5557;51.670;7.788;2024-02-26T02:48:14;5.40;1.00
11009;DHT22;5557;51.670;7.788;2024-02-26T02:50:41;5.40;1.00
11009;DHT22;5557;51.670;7.788;2024-02-26T02:53:09;5.40;1.00
11009;DHT22;5557;51.670;7.788;2024-02-26T02:55:37;5.40;1.00
11009;DHT22;5557;51.670;7.788;2024-02-26T02:58:07;5.40;1.00
11009;DHT22;5557;51.670;7.788;2024-02-26T03:00:34;5.40;1.00
11009;DHT22;5557;51.670;7.788;2024-02-26T03:03:04;5.40;1.00
11009;DHT22;5557;51.670;7.788;2024-02-26T03:05:33;5.40;1.00
11009;DHT22;5557;51.670;7.788;2024-02-26T03:08:02;5.40;1.00
11009;DHT22;5557;51.670;7.788;2024-02-26T03:10:29;5.40;1.00
11009;DHT22;5557;51.670;7.788;2024-02-26T03:12:56;5.40;1.00
11009;DHT22;5557;51.670;7.788;2024-02-26T03:15:24;5.40;1.00
11009;DHT22;5557;51.670;7.788;2024-02-26T03:17:51;5.40;1.00
11009;DHT22;5557;51.670;7.788;2024-02-26T03:20:20;5.40;1.00
11009;DHT22;5557;51.670;7.788;2024-02-26T03:22:47;5.50;1.00
11009;DHT22;5557;51.670;7.788;2024-02-26T03:25:14;5.50;1.00
11009;DHT22;5557;51.670;7.788;2024-02-26T03:27:41;5.50;1.00
11009;DHT22;5557;51.670;7.788;2024-02-26T03:30:09;5.50;1.00
11009;DHT22;5557;51.670;7.788;2024-02-26T03:32:40;5.60;1.00
11009;DHT22;5557;51.670;7.788;2024-02-26T03:35:11;5.60;1.00
11009;DHT22;5557;51.670;7.788;2024-02-26T03:37:38;5.60;1.00
11009;DHT22;5557;51.670;7.788;2024-02-26T03:40:07;5.60;1.00
11009;DHT22;5557;51.670;7.788;2024-02-26T03:42:34;5.60;1.00
11009;DHT22;5557;51.670;7.788;2024-02-26T03:45:06;5.60;1.00
11009;DHT22;5557;51.670;7.788;2024-02-26T03:47:34;5.70;1.00
11009;DHT22;5557;51.670;7.788;2024-02-26T03:50:07;5.60;1.00
11009;DHT22;5557;51.670;7.788;2024-02-26T03:52:38;5.70;1.00
11009;DHT22;5557;51.670;7.788;2024-02-26T03:55:07;5.70;1.00
11009;DHT22;5557;51.670;7.788;2024-02-26T03:57:35;5.60;1.00
11009;DHT22;5557;51.670;7.788;2024-02-26T04:00:04;5.60;1.00
11009;DHT22;5557;51.670;7.788;2024-02-26T04:02:33;5.70;1.00
11009;DHT22;5557;51.670;7.788;2024-02-26T04:05:00;5.70;1.00
11009;DHT22;5557;51.670;7.788;2024-02-26T04:07:27;5.70;1.00
11009;DHT22;5557;51.670;7.788;2024-02-26T04:09:57;5.70;1.00
11009;DHT22;5557;51.670;7.788;2024-02-26T04:12:24;5.70;1.00
11009;DHT22;5557;51.670;7.788;2024-02-26T04:15:08;5.70;1.00
11009;DHT22;5557;51.670;7.788;2024-02-26T04:17:38;5.70;1.00
11009;DHT22;5557;51.670;7.788;2024-02-26T04:20:07;5.70;1.00
11009;DHT22;5557;51.670;7.788;2024-02-26T04:22:37;5.70;1.00
11009;DHT22;5557;51.670;7.788;2024-02-26T04:25:09;5.70;1.00
11009;DHT22;5557;51.670;7.788;2024-02-26T04:27:37;5.70;1.00
11009;DHT22;5557;51.670;7.788;2024-02-26T04:30:07;5.70;1.00
11009;DHT22;5557;51.670;7.788;2024-02-26T04:32:35;5.70;1.00
11009;DHT22;5557;51.670;7.788;2024-02-26T04:35:05;5.60;1.00
11009;DHT22;5557;51.670;7.788;2024-02-26T04:37:48;5.60;1.00
11009;DHT22;5557;51.670;7.788;2024-02-26T04:40:16;5.60;1.00
11009;DHT22;5557;51.670;7.788;2024-02-26T04:42:43;5.60;1.00
11009;DHT22;5557;51.670;7.788;2024-02-26T04:45:10;5.60;1.00
11009;DHT22;5557;51.670;7.788;2024-02-26T04:47:41;5.50;1.00
11009;DHT22;5557;51.670;7.788;2024-02-26T04:50:12;5.50;1.00
11009;DHT22;5557;51.670;7.788;2024-02-26T04:52:43;5.50;1.00
11009;DHT22;5557;51.670;7.788;2024-02-26T04:55:20;5.50;1.00
11009;DHT22;5557;51.670;7.788;2024-02-26T04:57:47;5.50;1.00
11009;DHT22;5557;51.670;7.788;2024-02-26T05:00:14;5.50;1.00
11009;DHT22;5557;51.670;7.788;2024-02-26T05:02:42;5.40;1.00
11009;DHT22;5557;51.670;7.788;2024-02-26T05:05:09;5.40;1.00
11009;DHT22;5557;51.670;7.788;2024-02-26T05:07:41;5.40;1.00
11009;DHT22;5557;51.670;7.788;2024-02-26T05:10:12;5.40;1.00
11009;DHT22;5557;51.670;7.788;2024-02-26T05:12:39;5.40;1.00
11009;DHT22;5557;51.670;7.788;2024-02-26T05:15:08;5.30;1.00
11009;DHT22;5557;51.670;7.788;2024-02-26T05:17:37;5.30;1.50
11009;DHT22;5557;51.670;7.788;2024-02-26T05:20:04;5.30;2.00
11009;DHT22;5557;51.670;7.788;2024-02-26T05:22:37;5.30;2.40
11009;DHT22;5557;51.670;7.788;2024-02-26T05:25:04;5.30;2.40
11009;DHT22;5557;51.670;7.788;2024-02-26T05:27:31;5.20;5.50
11009;DHT22;5557;51.670;7.788;2024-02-26T05:29:58;5.20;7.40
11009;DHT22;5557;51.670;7.788;2024-02-26T05:32:26;5.20;7.60
11009;DHT22;5557;51.670;7.788;2024-02-26T05:34:53;5.20;7.50
11009;DHT22;5557;51.670;7.788;2024-02-26T05:37:20;5.20;8.50
11009;DHT22;5557;51.670;7.788;2024-02-26T05:39:50;5.20;5.90
11009;DHT22;5557;51.670;7.788;2024-02-26T05:42:33;5.20;6.60
11009;DHT22;5557;51.670;7.788;2024-02-26T05:45:04;5.20;6.30
11009;DHT22;5557;51.670;7.788;2024-02-26T05:47:41;5.20;6.50
11009;DHT22;5557;51.670;7.788;2024-02-26T05:50:19;5.20;5.50
11009;DHT22;5557;51.670;7.788;2024-02-26T05:53:02;5.20;4.80
11009;DHT22;5557;51.670;7.788;2024-02-26T05:55:40;5.30;3.10
11009;DHT22;5557;51.670;7.788;2024-02-26T05:58:08;5.30;2.50
11009;DHT22;5557;51.670;7.788;2024-02-26T06:00:36;5.30;2.30
11009;DHT22;5557;51.670;7.788;2024-02-26T06:03:04;5.30;1.80
11009;DHT22;5557;51.670;7.788;2024-02-26T06:05:33;5.30;2.30
11009;DHT22;5557;51.670;7.788;2024-02-26T06:08:03;5.30;2.30
11009;DHT22;5557;51.670;7.788;2024-02-26T06:10:34;5.30;2.00
11009;DHT22;5557;51.670;7.788;2024-02-26T06:13:24;5.30;1.30
11009;DHT22;5557;51.670;7.788;2024-02-26T06:16:00;5.30;1.30
11009;DHT22;5557;51.670;7.788;2024-02-26T06:18:59;5.30;1.30
11009;DHT22;5557;51.670;7.788;2024-02-26T06:21:33;5.30;1.00
11009;DHT22;5557;51.670;7.788;2024-02-26T06:24:06;5.40;1.00
11009;DHT22;5557;51.670;7.788;2024-02-26T06:26:35;5.40;1.00
11009;DHT22;5557;51.670;7.788;2024-02-26T06:29:03;5.40;1.00
11009;DHT22;5557;51.670;7.788;2024-02-26T06:31:30;5.40;1.00
11009;DHT22;5557;51.670;7.788;2024-02-26T06:33:58;5.40;1.20
11009;DHT22;5557;51.670;7.788;2024-02-26T06:36:27;5.40;2.40
11009;DHT22;5557;51.670;7.788;2024-02-26T06:38:55;5.40;2.50
11009;DHT22;5557;51.670;7.788;2024-02-26T06:41:23;5.40;2.00
11009;DHT22;5557;51.670;7.788;2024-02-26T06:43:55;5.40;1.00
11009;DHT22;5557;51.670;7.788;2024-02-26T06:46:23;5.40;1.00
11009;DHT22;5557;51.670;7.788;2024-02-26T06:48:50;5.40;1.00
11009;DHT22;5557;51.670;7.788;2024-02-26T06:51:21;5.40;1.00
11009;DHT22;5557;51.670;7.788;2024-02-26T06:53:49;5.50;1.00
11009;DHT22;5557;51.670;7.788;2024-02-26T06:56:17;5.50;1.00
11009;DHT22;5557;51.670;7.788;2024-02-26T06:58:47;5.50;1.00
11009;DHT22;5557;51.670;7.788;2024-02-26T07:01:14;5.50;1.00
11009;DHT22;5557;51.670;7.788;2024-02-26T07:03:45;5.60;1.00
11009;DHT22;5557;51.670;7.788;2024-02-26T07:06:16;5.60;1.00
11009;DHT22;5557;51.670;7.788;2024-02-26T07:08:43;5.60;1.00
11009;DHT22;5557;51.670;7.788;2024-02-26T07:11:13;5.60;1.00
11009;DHT22;5557;51.670;7.788;2024-02-26T07:13:40;5.70;1.00
11009;DHT22;5557;51.670;7.788;2024-02-26T07:16:09;5.70;1.00
11009;DHT22;5557;51.670;7.788;2024-02-26T07:18:38;5.70;1.00
11009;DHT22;5557;51.670;7.788;2024-02-26T07:21:07;5.70;1.00
11009;DHT22;5557;51.670;7.788;2024-02-26T07:23:34;5.70;1.00
11009;DHT22;5557;51.670;7.788;2024-02-26T07:26:02;5.70;1.00
11009;DHT22;5557;51.670;7.788;2024-02-26T07:28:30;5.80;1.00
11009;DHT22;5557;51.670;7.788;2024-02-26T07:30:57;5.80;1.00
11009;DHT22;5557;51.670;7.788;2024-02-26T07:33:24;5.80;1.00
11009;DHT22;5557;51.670;7.788;2024-02-26T07:35:52;5.80;1.00
11009;DHT22;5557;51.670;7.788;2024-02-26T07:38:20;5.80;1.00
11009;DHT22;5557;51.670;7.788;2024-02-26T07:41:07;5.80;1.00
11009;DHT22;5557;51.670;7.788;2024-02-26T07:43:37;5.80;1.00
11009;DHT22;5557;51.670;7.788;2024-02-26T07:46:04;5.80;1.00
11009;DHT22;5557;51.670;7.788;2024-02-26T07:48:33;5.80;1.00
11009;DHT22;5557;51.670;7.788;2024-02-26T07:51:02;5.90;1.00
11009;DHT22;5557;51.670;7.788;2024-02-26T07:53:30;5.90;1.00
11009;DHT22;5557;51.670;7.788;2024-02-26T07:55:58;5.90;1.00
11009;DHT22;5557;51.670;7.788;2024-02-26T07:58:26;5.90;1.00
11009;DHT22;5557;51.670;7.788;2024-02-26T08:00:55;5.90;1.00
11009;DHT22;5557;51.670;7.788;2024-02-26T08:03:22;6.00;1.00
11009;DHT22;5557;51.670;7.788;2024-02-26T08:05:51;6.00;1.00
11009;DHT22;5557;51.670;7.788;2024-02-26T08:08:19;6.00;1.00
11009;DHT22;5557;51.670;7.788;2024-02-26T08:10:47;6.10;1.00
11009;DHT22;5557;51.670;7.788;2024-02-26T08:13:15;6.10;1.00
11009;DHT22;5557;51.670;7.788;2024-02-26T08:15:42;6.10;1.00
11009;DHT22;5557;51.670;7.788;2024-02-26T08:18:09;6.10;1.00
11009;DHT22;5557;51.670;7.788;2024-02-26T08:20:50;6.20;1.00
11009;DHT22;5557;51.670;7.788;2024-02-26T08:23:17;6.20;1.00
11009;DHT22;5557;51.670;7.788;2024-02-26T08:25:44;6.20;1.00
11009;DHT22;5557;51.670;7.788;2024-02-26T08:28:11;6.20;1.00
11009;DHT22;5557;51.670;7.788;2024-02-26T08:30:40;6.30;1.00
11009;DHT22;5557;51.670;7.788;2024-02-26T08:33:08;6.30;1.00
11009;DHT22;5557;51.670;7.788;2024-02-26T08:35:37;6.40;1.00
11009;DHT22;5557;51.670;7.788;2024-02-26T08:38:04;6.40;1.00
11009;DHT22;5557;51.670;7.788;2024-02-26T08:40:31;6.40;1.00
11009;DHT22;5557;51.670;7.788;2024-02-26T08:42:58;6.50;1.00
11009;DHT22;5557;51.670;7.788;2024-02-26T08:45:25;6.50;1.00
11009;DHT22;5557;51.670;7.788;2024-02-26T08:47:56;6.60;1.00
11009;DHT22;5557;51.670;7.788;2024-02-26T08:50:26;6.60;1.00
11009;DHT22;5557;51.670;7.788;2024-02-26T08:52:53;6.60;1.00
11009;DHT22;5557;51.670;7.788;2024-02-26T08:55:21;6.70;1.00
11009;DHT22;5557;51.670;7.788;2024-02-26T08:57:48;6.70;1.00
11009;DHT22;5557;51.670;7.788;2024-02-26T09:00:15;6.80;1.00
11009;DHT22;5557;51.670;7.788;2024-02-26T09:02:44;6.90;1.00
11009;DHT22;5557;51.670;7.788;2024-02-26T09:05:11;7.00;1.00
11009;DHT22;5557;51.670;7.788;2024-02-26T09:07:40;7.00;1.00
11009;DHT22;5557;51.670;7.788;2024-02-26T09:10:08;7.00;1.00
11009;DHT22;5557;51.670;7.788;2024-02-26T09:12:38;7.10;1.00
11009;DHT22;5557;51.670;7.788;2024-02-26T09:15:08;7.20;1.00
11009;DHT22;5557;51.670;7.788;2024-02-26T09:17:39;7.30;1.00
11009;DHT22;5557;51.670;7.788;2024-02-26T09:20:07;7.40;1.00
11009;DHT22;5557;51.670;7.788;2024-02-26T09:22:36;7.50;1.00
11009;DHT22;5557;51.670;7.788;2024-02-26T09:25:06;7.50;1.00
11009;DHT22;5557;51.670;7.788;2024-02-26T09:27:33;7.60;1.00
11009;DHT22;5557;51.670;7.788;2024-02-26T09:30:00;7.70;1.00
11009;DHT22;5557;51.670;7.788;2024-02-26T09:32:29;7.70;1.00
11009;DHT22;5557;51.670;7.788;2024-02-26T09:34:57;7.70;1.00
11009;DHT22;5557;51.670;7.788;2024-02-26T09:37:25;7.80;1.00
11009;DHT22;5557;51.670;7.788;2024-02-26T09:39:54;7.90;1.00
11009;DHT22;5557;51.670;7.788;2024-02-26T09:42:25;7.90;1.00
11009;DHT22;5557;51.670;7.788;2024-02-26T09:44:54;7.90;1.00
11009;DHT22;5557;51.670;7.788;2024-02-26T09:47:25;7.90;1.00
11009;DHT22;5557;51.670;7.788;2024-02-26T09:49:56;8.00;1.00
11009;DHT22;5557;51.670;7.788;2024-02-26T09:52:24;8.10;1.00
11009;DHT22;5557;51.670;7.788;2024-02-26T09:54:52;8.10;1.00
11009;DHT22;5557;51.670;7.788;2024-02-26T09:57:19;8.20;1.00
11009;DHT22;5557;51.670;7.788;2024-02-26T09:59:50;8.20;1.00
11009;DHT22;5557;51.670;7.788;2024-02-26T10:02:19;8.30;1.00
11009;DHT22;5557;51.670;7.788;2024-02-26T10:04:47;8.30;1.00
11009;DHT22;5557;51.670;7.788;2024-02-26T10:07:18;8.30;1.00
11009;DHT22;5557;51.670;7.788;2024-02-26T10:09:45;8.20;1.00
11009;DHT22;5557;51.670;7.788;2024-02-26T10:12:14;8.10;1.00
11009;DHT22;5557;51.670;7.788;2024-02-26T10:14:44;8.10;1.00
11009;DHT22;5557;51.670;7.788;2024-02-26T10:17:11;8.10;1.00
11009;DHT22;5557;51.670;7.788;2024-02-26T10:19:39;8.10;1.00
11009;DHT22;5557;51.670;7.788;2024-02-26T10:22:06;8.10;1.00
11009;DHT22;5557;51.670;7.788;2024-02-26T10:24:33;8.10;1.00
11009;DHT22;5557;51.670;7.788;2024-02-26T10:27:03;8.20;1.00
11009;DHT22;5557;51.670;7.788;2024-02-26T10:29:36;8.20;1.00
11009;DHT22;5557;51.670;7.788;2024-02-26T10:32:04;8.20;1.00
11009;DHT22;5557;51.670;7.788;2024-02-26T10:34:53;8.10;1.00
11009;DHT22;5557;51.670;7.788;2024-02-26T10:37:22;8.00;1.00
11009;DHT22;5557;51.670;7.788;2024-02-26T10:39:52;8.00;1.00
11009;DHT22;5557;51.670;7.788;2024-02-26T10:42:19;8.00;1.00
11009;DHT22;5557;51.670;7.788;2024-02-26T10:44:47;8.10;1.00
11009;DHT22;5557;51.670;7.788;2024-02-26T10:47:15;8.10;1.00
11009;DHT22;5557;51.670;7.788;2024-02-26T10:49:46;8.10;1.00
11009;DHT22;5557;51.670;7.788;2024-02-26T10:52:19;8.10;1.00
11009;DHT22;5557;51.670;7.788;2024-02-26T10:54:48;8.10;1.00
11009;DHT22;5557;51.670;7.788;2024-02-26T10:57:18;8.10;1.00
11009;DHT22;5557;51.670;7.788;2024-02-26T10:59:45;8.10;1.00
11009;DHT22;5557;51.670;7.788;2024-02-26T11:02:14;8.10;1.00
11009;DHT22;5557;51.670;7.788;2024-02-26T11:04:42;8.00;1.00
11009;DHT22;5557;51.670;7.788;2024-02-26T11:07:10;8.00;1.00
11009;DHT22;5557;51.670;7.788;2024-02-26T11:09:38;8.10;1.00
11009;DHT22;5557;51.670;7.788;2024-02-26T11:12:13;8.10;1.00
11009;DHT22;5557;51.670;7.788;2024-02-26T11:14:44;8.00;1.00
11009;DHT22;5557;51.670;7.788;2024-02-26T11:17:13;7.90;1.00
11009;DHT22;5557;51.670;7.788;2024-02-26T11:19:45;8.00;1.00
11009;DHT22;5557;51.670;7.788;2024-02-26T11:22:13;8.00;1.00
11009;DHT22;5557;51.670;7.788;2024-02-26T11:24:50;8.00;1.00
11009;DHT22;5557;51.670;7.788;2024-02-26T11:27:19;8.20;1.00
11009;DHT22;5557;51.670;7.788;2024-02-26T11:29:52;8.20;1.00
11009;DHT22;5557;51.670;7.788;2024-02-26T11:32:23;8.10;1.00
11009;DHT22;5557;51.670;7.788;2024-02-26T11:34:53;8.00;1.00
11009;DHT22;5557;51.670;7.788;2024-02-26T11:37:24;8.10;1.00
11009;DHT22;5557;51.670;7.788;2024-02-26T11:39:52;8.10;1.00
11009;DHT22;5557;51.670;7.788;2024-02-26T11:42:23;8.10;1.00
11009;DHT22;5557;51.670;7.788;2024-02-26T11:44:52;8.20;1.00
11009;DHT22;5557;51.670;7.788;2024-02-26T11:47:21;8.20;1.00
11009;DHT22;5557;51.670;7.788;2024-02-26T11:49:49;8.20;1.00
11009;DHT22;5557;51.670;7.788;2024-02-26T11:52:17;8.20;1.00
11009;DHT22;5557;51.670;7.788;2024-02-26T11:54:56;8.20;1.00
11009;DHT22;5557;51.670;7.788;2024-02-26T11:57:45;8.10;1.00
11009;DHT22;5557;51.670;7.788;2024-02-26T12:00:16;8.10;1.00
11009;DHT22;5557;51.670;7.788;2024-02-26T12:02:53;8.10;1.00
11009;DHT22;5557;51.670;7.788;2024-02-26T12:05:33;8.10;1.00
11009;DHT22;5557;51.670;7.788;2024-02-26T12:08:04;8.00;1.00
11009;DHT22;5557;51.670;7.788;2024-02-26T12:10:36;8.00;1.00
11009;DHT22;5557;51.670;7.788;2024-02-26T12:13:15;8.00;1.00
11009;DHT22;5557;51.670;7.788;2024-02-26T12:15:55;8.10;1.00
11009;DHT22;5557;51.670;7.788;2024-02-26T12:18:28;8.10;1.00
11009;DHT22;5557;51.670;7.788;2024-02-26T12:21:03;8.10;1.00
11009;DHT22;5557;51.670;7.788;2024-02-26T12:23:32;8.10;1.00
11009;DHT22;5557;51.670;7.788;2024-02-26T12:26:00;8.00;1.00
11009;DHT22;5557;51.670;7.788;2024-02-26T12:28:32;8.00;1.00
11009;DHT22;5557;51.670;7.788;2024-02-26T12:30:59;8.00;1.00
11009;DHT22;5557;51.670;7.788;2024-02-26T12:33:28;8.10;1.00
11009;DHT22;5557;51.670;7.788;2024-02-26T12:35:56;8.10;1.00
11009;DHT22;5557;51.670;7.788;2024-02-26T12:38:24;8.10;1.00
11009;DHT22;5557;51.670;7.788;2024-02-26T12:40:51;8.10;1.00
11009;DHT22;5557;51.670;7.788;2024-02-26T12:43:18;8.10;1.00
11009;DHT22;5557;51.670;7.788;2024-02-26T12:45:45;8.10;1.00
11009;DHT22;5557;51.670;7.788;2024-02-26T12:48:14;8.10;1.00
11009;DHT22;5557;51.670;7.788;2024-02-26T12:50:50;8.00;1.00
11009;DHT22;5557;51.670;7.788;2024-02-26T12:53:17;8.10;1.00
11009;DHT22;5557;51.670;7.788;2024-02-26T12:55:48;8.00;1.00
11009;DHT22;5557;51.670;7.788;2024-02-26T12:58:17;8.00;1.00
11009;DHT22;5557;51.670;7.788;2024-02-26T13:00:46;7.90;1.00
11009;DHT22;5557;51.670;7.788;2024-02-26T13:03:16;7.80;1.00
11009;DHT22;5557;51.670;7.788;2024-02-26T13:05:43;7.80;1.00
11009;DHT22;5557;51.670;7.788;2024-02-26T13:08:17;7.80;1.00
11009;DHT22;5557;51.670;7.788;2024-02-26T13:10:46;7.80;1.00
11009;DHT22;5557;51.670;7.788;2024-02-26T13:13:17;7.80;1.00
11009;DHT22;5557;51.670;7.788;2024-02-26T13:15:45;7.90;1.00
11009;DHT22;5557;51.670;7.788;2024-02-26T13:18:15;8.00;1.00
11009;DHT22;5557;51.670;7.788;2024-02-26T13:20:43;8.00;1.00
11009;DHT22;5557;51.670;7.788;2024-02-26T13:23:12;8.10;1.00
11009;DHT22;5557;51.670;7.788;2024-02-26T13:25:56;8.20;1.00
11009;DHT22;5557;51.670;7.788;2024-02-26T13:28:25;8.30;1.00
11009;DHT22;5557;51.670;7.788;2024-02-26T13:30:55;8.30;1.00
11009;DHT22;5557;51.670;7.788;2024-02-26T13:33:25;8.40;1.00
11009;DHT22;5557;51.670;7.788;2024-02-26T13:35:59;8.40;1.00
11009;DHT22;5557;51.670;7.788;2024-02-26T13:38:28;8.40;1.00
11009;DHT22;5557;51.670;7.788;2024-02-26T13:40:56;8.40;1.00
11009;DHT22;5557;51.670;7.788;2024-02-26T13:43:26;8.40;1.00
11009;DHT22;5557;51.670;7.788;2024-02-26T13:45:53;8.30;1.00
11009;DHT22;5557;51.670;7.788;2024-02-26T13:48:28;8.40;1.00
11009;DHT22;5557;51.670;7.788;2024-02-26T13:50:55;8.40;1.00
11009;DHT22;5557;51.670;7.788;2024-02-26T13:53:22;8.40;1.00
11009;DHT22;5557;51.670;7.788;2024-02-26T13:55:51;8.40;1.00
11009;DHT22;5557;51.670;7.788;2024-02-26T13:58:18;8.30;1.00
11009;DHT22;5557;51.670;7.788;2024-02-26T14:00:49;8.20;1.00
11009;DHT22;5557;51.670;7.788;2024-02-26T14:03:17;8.20;1.00
11009;DHT22;5557;51.670;7.788;2024-02-26T14:05:46;8.10;1.00
11009;DHT22;5557;51.670;7.788;2024-02-26T14:08:15;8.10;1.00
11009;DHT22;5557;51.670;7.788;2024-02-26T14:10:44;8.10;1.00
11009;DHT22;5557;51.670;7.788;2024-02-26T14:13:11;8.10;1.00
11009;DHT22;5557;51.670;7.788;2024-02-26T14:15:38;8.00;1.00
11009;DHT22;5557;51.670;7.788;2024-02-26T14:18:07;8.00;1.00
11009;DHT22;5557;51.670;7.788;2024-02-26T14:20:34;7.90;1.00
11009;DHT22;5557;51.670;7.788;2024-02-26T14:23:03;7.90;1.00
11009;DHT22;5557;51.670;7.788;2024-02-26T14:25:32;7.80;1.00
11009;DHT22;5557;51.670;7.788;2024-02-26T14:27:59;7.90;1.00
11009;DHT22;5557;51.670;7.788;2024-02-26T14:30:27;7.90;1.00
11009;DHT22;5557;51.670;7.788;2024-02-26T14:32:55;7.80;1.00
11009;DHT22;5557;51.670;7.788;2024-02-26T14:35:22;7.80;1.00
11009;DHT22;5557;51.670;7.788;2024-02-26T14:37:52;7.80;1.00
11009;DHT22;5557;51.670;7.788;2024-02-26T14:40:21;7.80;1.00
11009;DHT22;5557;51.670;7.788;2024-02-26T14:42:48;7.80;1.00
11009;DHT22;5557;51.670;7.788;2024-02-26T14:45:15;7.90;1.00
11009;DHT22;5557;51.670;7.788;2024-02-26T14:47:43;7.90;1.00
11009;DHT22;5557;51.670;7.788;2024-02-26T14:50:11;7.90;1.00
11009;DHT22;5557;51.670;7.788;2024-02-26T14:52:38;7.80;1.00
11009;DHT22;5557;51.670;7.788;2024-02-26T14:55:09;7.80;1.00
11009;DHT22;5557;51.670;7.788;2024-02-26T14:57:36;7.80;1.00
11009;DHT22;5557;51.670;7.788;2024-02-26T15:00:04;7.70;1.00
11009;DHT22;5557;51.670;7.788;2024-02-26T15:02:37;7.70;1.00
11009;DHT22;5557;51.670;7.788;2024-02-26T15:05:06;7.70;1.00
11009;DHT22;5557;51.670;7.788;2024-02-26T15:07:42;7.80;1.00
11009;DHT22;5557;51.670;7.788;2024-02-26T15:10:09;7.80;1.00
11009;DHT22;5557;51.670;7.788;2024-02-26T15:12:36;7.80;1.00
11009;DHT22;5557;51.670;7.788;2024-02-26T15:15:06;7.80;1.00
11009;DHT22;5557;51.670;7.788;2024-02-26T15:17:35;7.80;1.00
11009;DHT22;5557;51.670;7.788;2024-02-26T15:20:04;7.80;1.00
11009;DHT22;5557;51.670;7.788;2024-02-26T15:22:36;7.80;1.00
11009;DHT22;5557;51.670;7.788;2024-02-26T15:25:12;7.70;1.00
11009;DHT22;5557;51.670;7.788;2024-02-26T15:27:46;7.80;1.00
11009;DHT22;5557;51.670;7.788;2024-02-26T15:30:14;7.80;1.00
11009;DHT22;5557;51.670;7.788;2024-02-26T15:32:45;7.80;1.00
11009;DHT22;5557;51.670;7.788;2024-02-26T15:35:13;7.70;1.00
11009;DHT22;5557;51.670;7.788;2024-02-26T15:37:41;7.70;1.00
11009;DHT22;5557;51.670;7.788;2024-02-26T15:40:11;7.70;1.00
11009;DHT22;5557;51.670;7.788;2024-02-26T15:42:39;7.60;1.00
11009;DHT22;5557;51.670;7.788;2024-02-26T15:45:08;7.60;1.00
11009;DHT22;5557;51.670;7.788;2024-02-26T15:47:44;7.60;1.00
11009;DHT22;5557;51.670;7.788;2024-02-26T15:50:21;7.50;1.00
11009;DHT22;5557;51.670;7.788;2024-02-26T15:53:09;7.50;1.00
11009;DHT22;5557;51.670;7.788;2024-02-26T15:55:38;7.50;1.00
11009;DHT22;5557;51.670;7.788;2024-02-26T15:58:09;7.40;1.00
11009;DHT22;5557;51.670;7.788;2024-02-26T16:00:42;7.40;1.00
11009;DHT22;5557;51.670;7.788;2024-02-26T16:03:12;7.40;1.00
11009;DHT22;5557;51.670;7.788;2024-02-26T16:05:39;7.50;1.00
11009;DHT22;5557;51.670;7.788;2024-02-26T16:08:20;7.40;1.00
11009;DHT22;5557;51.670;7.788;2024-02-26T16:10:48;7.50;1.00
11009;DHT22;5557;51.670;7.788;2024-02-26T16:13:16;7.50;1.00
11009;DHT22;5557;51.670;7.788;2024-02-26T16:16:05;7.50;1.00
11009;DHT22;5557;51.670;7.788;2024-02-26T16:18:36;7.50;1.00
11009;DHT22;5557;51.670;7.788;2024-02-26T16:21:04;7.50;1.00
11009;DHT22;5557;51.670;7.788;2024-02-26T16:23:32;7.50;1.00
11009;DHT22;5557;51.670;7.788;2024-02-26T16:26:00;7.50;1.00
11009;DHT22;5557;51.670;7.788;2024-02-26T16:28:27;7.50;1.00
11009;DHT22;5557;51.670;7.788;2024-02-26T16:30:54;7.50;1.00
11009;DHT22;5557;51.670;7.788;2024-02-26T16:33:24;7.50;1.00